createdAt,value
2018-06-20T00:00:10.753Z,7.23
2018-06-20T00:00:41.929Z,7.33
2018-06-20T00:01:13.097Z,7.67
2018-06-20T00:01:44.291Z,8.08
2018-06-20T00:02:15.470Z,7.15
2018-06-20T00:02:46.692Z,6.77
2018-06-20T00:03:17.893Z,7.33
2018-06-20T00:03:49.118Z,8.15
2018-06-20T00:04:20.357Z,7.65
2018-06-20T00:04:51.535Z,8.18
2018-06-20T00:05:22.767Z,7.53
2018-06-20T00:05:53.997Z,7.47
2018-06-20T00:06:25.191Z,8.48
2018-06-20T00:06:56.424Z,8.15
2018-06-20T00:07:27.715Z,7.83
2018-06-20T00:07:58.948Z,8.08
2018-06-20T00:08:30.126Z,8.30
2018-06-20T00:09:01.354Z,7.95
2018-06-20T00:09:32.551Z,7.70
2018-06-20T00:10:03.776Z,8.48
2018-06-20T00:10:35.020Z,7.70
2018-06-20T00:11:06.207Z,8.13
2018-06-20T00:11:37.384Z,8.35
2018-06-20T00:12:08.567Z,7.50
2018-06-20T00:12:39.744Z,8.07
2018-06-20T00:13:10.968Z,7.70
2018-06-20T00:13:42.205Z,7.77
2018-06-20T00:14:13.443Z,7.67
2018-06-20T00:14:44.641Z,7.55
2018-06-20T00:15:15.905Z,7.83
2018-06-20T00:15:47.092Z,7.95
2018-06-20T00:16:18.270Z,8.18
2018-06-20T00:16:49.497Z,8.10
2018-06-20T00:17:20.730Z,7.20
2018-06-20T00:17:51.915Z,8.00
2018-06-20T00:18:23.148Z,8.28
2018-06-20T00:18:54.332Z,8.15
2018-06-20T00:19:25.508Z,8.10
2018-06-20T00:19:56.740Z,8.10
2018-06-20T00:20:27.964Z,8.30
2018-06-20T00:20:59.144Z,8.15
2018-06-20T00:21:30.368Z,9.10
2018-06-20T00:22:01.559Z,8.40
2018-06-20T00:22:32.793Z,8.38
2018-06-20T00:23:03.980Z,8.78
2018-06-20T00:23:35.207Z,8.63
2018-06-20T00:24:06.385Z,8.55
2018-06-20T00:24:37.551Z,8.00
2018-06-20T00:25:08.785Z,8.40
2018-06-20T00:25:40.011Z,8.33
2018-06-20T00:26:11.254Z,8.40
2018-06-20T00:26:42.432Z,8.18
2018-06-20T00:27:13.613Z,8.65
2018-06-20T00:27:44.790Z,7.72
2018-06-20T00:28:16.078Z,8.03
2018-06-20T00:28:47.268Z,8.05
2018-06-20T00:29:18.451Z,8.18
2018-06-20T00:29:49.691Z,7.72
2018-06-20T00:30:20.880Z,8.00
2018-06-20T00:30:52.054Z,8.13
2018-06-20T00:31:23.285Z,8.20
2018-06-20T00:31:54.479Z,8.23
2018-06-20T00:32:25.652Z,8.18
2018-06-20T00:32:56.833Z,8.20
2018-06-20T00:33:28.054Z,8.33
2018-06-20T00:33:59.237Z,9.05
2018-06-20T00:34:30.425Z,9.20
2018-06-20T00:35:01.615Z,8.95
2018-06-20T00:35:32.801Z,7.75
2018-06-20T00:36:04.036Z,8.38
2018-06-20T00:36:35.285Z,8.35
2018-06-20T00:37:06.474Z,8.98
2018-06-20T00:37:37.648Z,8.23
2018-06-20T00:38:08.825Z,8.58
2018-06-20T00:38:40.032Z,9.00
2018-06-20T00:39:11.637Z,8.43
2018-06-20T00:39:42.825Z,7.67
2018-06-20T00:40:14.006Z,7.80
2018-06-20T00:40:45.218Z,8.35
2018-06-20T00:41:16.396Z,7.90
2018-06-20T00:41:47.621Z,7.90
2018-06-20T00:42:18.857Z,7.65
2018-06-20T00:42:50.043Z,7.90
2018-06-20T00:43:21.220Z,7.87
2018-06-20T00:43:52.449Z,8.03
2018-06-20T00:44:23.637Z,7.87
2018-06-20T00:44:54.864Z,7.55
2018-06-20T00:45:26.044Z,7.50
2018-06-20T00:45:57.220Z,7.15
2018-06-20T00:46:28.480Z,7.05
2018-06-20T00:46:59.740Z,8.00
2018-06-20T00:47:30.977Z,7.67
2018-06-20T00:48:02.154Z,7.62
2018-06-20T00:48:33.346Z,7.75
2018-06-20T00:49:04.527Z,8.20
2018-06-20T00:49:35.735Z,7.53
2018-06-20T00:50:06.921Z,7.30
2018-06-20T00:50:38.169Z,7.15
2018-06-20T00:51:09.352Z,7.45
2018-06-20T00:51:40.528Z,7.65
2018-06-20T00:52:11.704Z,7.22
2018-06-20T00:52:42.880Z,7.37
2018-06-20T00:53:14.072Z,8.03
2018-06-20T00:53:45.244Z,7.75
2018-06-20T00:54:16.490Z,7.78
2018-06-20T00:54:47.672Z,7.75
2018-06-20T00:55:18.893Z,8.05
2018-06-20T00:55:50.076Z,7.97
2018-06-20T00:56:21.256Z,7.40
2018-06-20T00:56:52.491Z,7.78
2018-06-20T00:57:23.725Z,8.63
2018-06-20T00:57:54.909Z,8.20
2018-06-20T00:58:26.087Z,8.38
2018-06-20T00:58:57.267Z,7.72
2018-06-20T00:59:28.443Z,7.42
2018-06-20T00:59:59.635Z,7.60
2018-06-20T01:00:30.845Z,7.97
2018-06-20T01:01:02.027Z,7.65
2018-06-20T01:01:33.265Z,7.60
2018-06-20T01:02:04.452Z,7.40
2018-06-20T01:02:35.644Z,7.80
2018-06-20T01:03:06.873Z,7.25
2018-06-20T01:03:38.056Z,7.33
2018-06-20T01:04:09.231Z,7.80
2018-06-20T01:04:40.456Z,8.38
2018-06-20T01:05:11.630Z,7.60
2018-06-20T01:05:42.874Z,7.20
2018-06-20T01:06:14.074Z,7.62
2018-06-20T01:06:45.248Z,7.75
2018-06-20T01:07:16.415Z,7.60
2018-06-20T01:07:47.608Z,7.17
2018-06-20T01:08:18.784Z,7.40
2018-06-20T01:08:50.045Z,7.35
2018-06-20T01:09:21.228Z,7.50
2018-06-20T01:09:52.413Z,8.45
2018-06-20T01:10:23.599Z,7.85
2018-06-20T01:10:54.791Z,7.87
2018-06-20T01:11:25.968Z,8.00
2018-06-20T01:11:57.247Z,7.67
2018-06-20T01:12:28.357Z,7.70
2018-06-20T01:12:59.589Z,7.22
2018-06-20T01:13:30.809Z,7.45
2018-06-20T01:14:02.024Z,7.80
2018-06-20T01:14:33.202Z,7.60
2018-06-20T01:15:04.391Z,7.37
2018-06-20T01:15:35.572Z,7.75
2018-06-20T01:16:06.804Z,8.43
2018-06-20T01:16:37.996Z,7.50
2018-06-20T01:17:09.173Z,7.78
2018-06-20T01:17:40.349Z,8.10
2018-06-20T01:18:11.523Z,7.67
2018-06-20T01:18:42.716Z,8.70
2018-06-20T01:19:13.920Z,8.05
2018-06-20T01:19:45.085Z,7.97
2018-06-20T01:20:16.269Z,8.30
2018-06-20T01:20:47.450Z,7.62
2018-06-20T01:21:18.635Z,8.28
2018-06-20T01:21:49.812Z,8.05
2018-06-20T01:22:21.040Z,7.97
2018-06-20T01:22:52.220Z,8.35
2018-06-20T01:23:23.445Z,7.83
2018-06-20T01:23:54.628Z,7.87
2018-06-20T01:24:25.884Z,8.13
2018-06-20T01:24:57.097Z,7.47
2018-06-20T01:25:28.280Z,7.90
2018-06-20T01:25:59.454Z,8.03
2018-06-20T01:26:30.629Z,8.28
2018-06-20T01:27:01.870Z,8.05
2018-06-20T01:27:33.101Z,8.10
2018-06-20T01:28:04.337Z,8.63
2018-06-20T01:28:35.576Z,7.95
2018-06-20T01:29:06.818Z,8.63
2018-06-20T01:29:38.027Z,8.35
2018-06-20T01:30:09.249Z,8.33
2018-06-20T01:30:40.476Z,7.80
2018-06-20T01:31:11.665Z,8.48
2018-06-20T01:31:42.845Z,8.70
2018-06-20T01:32:14.026Z,8.35
2018-06-20T01:32:45.257Z,8.25
2018-06-20T01:33:16.441Z,8.23
2018-06-20T01:33:47.620Z,8.13
2018-06-20T01:34:18.861Z,8.25
2018-06-20T01:34:50.094Z,8.43
2018-06-20T01:35:21.269Z,8.28
2018-06-20T01:35:52.445Z,8.20
2018-06-20T01:36:23.681Z,8.58
2018-06-20T01:36:54.861Z,8.68
2018-06-20T01:37:26.037Z,8.13
2018-06-20T01:37:57.247Z,7.83
2018-06-20T01:38:28.469Z,8.33
2018-06-20T01:38:59.652Z,8.78
2018-06-20T01:39:30.941Z,8.30
2018-06-20T01:40:02.124Z,8.93
2018-06-20T01:40:33.300Z,8.30
2018-06-20T01:41:04.557Z,8.95
2018-06-20T01:41:35.749Z,7.62
2018-06-20T01:42:06.923Z,8.68
2018-06-20T01:42:38.096Z,8.10
2018-06-20T01:43:09.318Z,8.43
2018-06-20T01:43:40.492Z,7.87
2018-06-20T01:44:11.722Z,8.63
2018-06-20T01:44:42.942Z,8.28
2018-06-20T01:45:14.146Z,8.60
2018-06-20T01:45:45.328Z,9.23
2018-06-20T01:46:16.504Z,8.65
2018-06-20T01:46:47.683Z,8.70
2018-06-20T01:47:18.868Z,8.48
2018-06-20T01:47:50.098Z,8.23
2018-06-20T01:48:21.292Z,9.58
2018-06-20T01:48:52.506Z,9.28
2018-06-20T01:49:23.673Z,9.20
2018-06-20T01:49:54.853Z,9.43
2018-06-20T01:50:26.077Z,9.20
2018-06-20T01:50:57.312Z,9.18
2018-06-20T01:51:28.532Z,8.98
2018-06-20T01:51:59.704Z,9.18
2018-06-20T01:52:30.928Z,9.20
2018-06-20T01:53:02.169Z,8.98
2018-06-20T01:53:33.404Z,8.98
2018-06-20T01:54:04.641Z,9.10
2018-06-20T01:54:35.875Z,9.35
2018-06-20T01:55:07.095Z,9.18
2018-06-20T01:55:38.277Z,8.65
2018-06-20T01:56:09.512Z,8.95
2018-06-20T01:56:40.692Z,9.40
2018-06-20T01:57:11.878Z,9.50
2018-06-20T01:57:43.049Z,9.55
2018-06-20T01:58:14.221Z,9.08
2018-06-20T01:58:45.403Z,9.53
2018-06-20T01:59:16.576Z,9.70
2018-06-20T01:59:47.760Z,9.68
2018-06-20T02:00:18.970Z,9.35
2018-06-20T02:00:50.149Z,9.18
2018-06-20T02:01:21.377Z,9.85
2018-06-20T02:01:52.572Z,10.00
2018-06-20T02:02:23.792Z,9.65
2018-06-20T02:02:55.029Z,9.45
2018-06-20T02:03:26.211Z,9.18
2018-06-20T02:03:57.384Z,9.55
2018-06-20T02:04:28.613Z,9.85
2018-06-20T02:04:59.851Z,10.23
2018-06-20T02:05:31.077Z,8.88
2018-06-20T02:06:02.264Z,9.18
2018-06-20T02:06:33.490Z,9.90
2018-06-20T02:07:04.676Z,9.03
2018-06-20T02:07:35.931Z,9.30
2018-06-20T02:08:07.116Z,9.18
2018-06-20T02:08:38.302Z,9.05
2018-06-20T02:09:09.481Z,9.50
2018-06-20T02:09:40.648Z,8.75
2018-06-20T02:10:11.877Z,8.93
2018-06-20T02:10:43.057Z,8.78
2018-06-20T02:11:14.280Z,9.13
2018-06-20T02:11:45.549Z,8.93
2018-06-20T02:12:16.781Z,9.08
2018-06-20T02:12:47.964Z,8.58
2018-06-20T02:13:19.239Z,8.93
2018-06-20T02:13:50.420Z,8.48
2018-06-20T02:14:21.654Z,9.13
2018-06-20T02:14:52.840Z,8.95
2018-06-20T02:15:24.075Z,9.10
2018-06-20T02:15:55.296Z,8.85
2018-06-20T02:16:26.512Z,8.93
2018-06-20T02:16:57.752Z,8.93
2018-06-20T02:17:28.982Z,8.98
2018-06-20T02:18:00.172Z,8.90
2018-06-20T02:18:31.363Z,9.10
2018-06-20T02:19:02.541Z,9.18
2018-06-20T02:19:33.726Z,9.23
2018-06-20T02:20:04.903Z,9.18
2018-06-20T02:20:36.139Z,9.10
2018-06-20T02:21:07.400Z,9.48
2018-06-20T02:21:38.593Z,9.45
2018-06-20T02:22:09.820Z,8.65
2018-06-20T02:22:41.013Z,9.80
2018-06-20T02:23:12.187Z,9.60
2018-06-20T02:23:43.355Z,8.90
2018-06-20T02:24:14.578Z,9.60
2018-06-20T02:24:45.766Z,9.33
2018-06-20T02:25:16.976Z,9.13
2018-06-20T02:25:48.147Z,9.15
2018-06-20T02:26:19.381Z,9.10
2018-06-20T02:26:50.574Z,9.23
2018-06-20T02:27:21.738Z,9.90
2018-06-20T02:27:52.960Z,9.30
2018-06-20T02:28:24.140Z,9.88
2018-06-20T02:28:55.317Z,9.20
2018-06-20T02:29:26.541Z,9.23
2018-06-20T02:29:57.729Z,9.58
2018-06-20T02:30:28.937Z,9.85
2018-06-20T02:31:00.163Z,9.68
2018-06-20T02:31:31.384Z,9.05
2018-06-20T02:32:02.553Z,9.25
2018-06-20T02:32:33.769Z,9.38
2018-06-20T02:33:05.001Z,8.95
2018-06-20T02:33:36.188Z,9.25
2018-06-20T02:34:07.373Z,8.95
2018-06-20T02:34:38.598Z,8.58
2018-06-20T02:35:09.812Z,9.63
2018-06-20T02:35:40.985Z,8.98
2018-06-20T02:36:12.217Z,9.00
2018-06-20T02:36:43.461Z,9.28
2018-06-20T02:37:14.657Z,8.40
2018-06-20T02:37:45.894Z,8.30
2018-06-20T02:38:17.080Z,8.00
2018-06-20T02:38:48.361Z,8.38
2018-06-20T02:39:19.593Z,9.08
2018-06-20T02:39:50.830Z,8.03
2018-06-20T02:40:22.051Z,8.50
2018-06-20T02:40:53.265Z,8.75
2018-06-20T02:41:24.497Z,8.95
2018-06-20T02:41:55.684Z,8.05
2018-06-20T02:42:26.905Z,9.10
2018-06-20T02:42:58.081Z,8.90
2018-06-20T02:43:29.257Z,8.88
2018-06-20T02:44:01.198Z,9.08
2018-06-20T02:44:32.434Z,8.30
2018-06-20T02:45:03.629Z,8.73
2018-06-20T02:45:34.797Z,8.73
2018-06-20T02:46:06.335Z,7.87
2018-06-20T02:46:37.557Z,8.45
2018-06-20T02:47:08.755Z,8.58
2018-06-20T02:47:39.928Z,8.48
2018-06-20T02:48:11.153Z,8.83
2018-06-20T02:48:42.349Z,8.50
2018-06-20T02:49:13.573Z,8.85
2018-06-20T02:49:44.754Z,8.70
2018-06-20T02:50:15.990Z,8.75
2018-06-20T02:50:47.222Z,9.10
2018-06-20T02:51:18.413Z,8.65
2018-06-20T02:51:49.590Z,8.80
2018-06-20T02:52:20.771Z,9.55
2018-06-20T02:52:52.105Z,9.40
2018-06-20T02:53:23.227Z,7.92
2018-06-20T02:53:54.405Z,8.50
2018-06-20T02:54:25.669Z,9.30
2018-06-20T02:54:56.853Z,9.00
2018-06-20T02:55:28.045Z,8.78
2018-06-20T02:55:59.225Z,8.80
2018-06-20T02:56:30.452Z,9.38
2018-06-20T02:57:01.637Z,8.70
2018-06-20T02:57:32.869Z,9.08
2018-06-20T02:58:04.093Z,8.95
2018-06-20T02:58:35.272Z,9.10
2018-06-20T02:59:06.440Z,9.20
2018-06-20T02:59:37.665Z,10.00
2018-06-20T03:00:08.909Z,9.00
2018-06-20T03:00:40.142Z,9.10
2018-06-20T03:01:11.376Z,8.60
2018-06-20T03:01:42.580Z,8.88
2018-06-20T03:02:13.761Z,8.90
2018-06-20T03:02:44.944Z,8.53
2018-06-20T03:03:16.160Z,8.73
2018-06-20T03:03:47.388Z,8.83
2018-06-20T03:04:18.572Z,8.90
2018-06-20T03:04:49.751Z,8.95
2018-06-20T03:05:20.945Z,7.92
2018-06-20T03:05:52.168Z,8.28
2018-06-20T03:06:23.344Z,8.13
2018-06-20T03:06:54.516Z,8.55
2018-06-20T03:07:25.700Z,7.90
2018-06-20T03:07:56.881Z,8.00
2018-06-20T03:08:28.060Z,8.73
2018-06-20T03:08:59.348Z,7.47
2018-06-20T03:09:30.536Z,7.90
2018-06-20T03:10:01.705Z,7.90
2018-06-20T03:10:32.945Z,8.13
2018-06-20T03:11:04.177Z,8.20
2018-06-20T03:11:35.357Z,8.28
2018-06-20T03:12:06.597Z,8.40
2018-06-20T03:12:37.792Z,7.85
2018-06-20T03:13:08.973Z,8.08
2018-06-20T03:13:40.169Z,7.58
2018-06-20T03:14:11.389Z,8.50
2018-06-20T03:14:42.574Z,8.55
2018-06-20T03:15:13.757Z,8.30
2018-06-20T03:15:44.937Z,7.80
2018-06-20T03:16:16.154Z,8.35
2018-06-20T03:16:47.338Z,8.13
2018-06-20T03:17:18.512Z,8.45
2018-06-20T03:17:49.684Z,7.28
2018-06-20T03:18:20.864Z,8.60
2018-06-20T03:18:52.044Z,7.75
2018-06-20T03:19:23.253Z,8.15
2018-06-20T03:19:54.507Z,7.87
2018-06-20T03:20:25.705Z,8.20
2018-06-20T03:20:56.937Z,8.15
2018-06-20T03:21:28.244Z,7.90
2018-06-20T03:21:59.484Z,7.58
2018-06-20T03:22:30.657Z,7.63
2018-06-20T03:23:01.892Z,8.10
2018-06-20T03:23:33.090Z,7.83
2018-06-20T03:24:04.268Z,7.85
2018-06-20T03:24:35.454Z,8.20
2018-06-20T03:25:06.672Z,8.23
2018-06-20T03:25:37.898Z,8.68
2018-06-20T03:26:09.080Z,8.10
2018-06-20T03:26:40.314Z,7.63
2018-06-20T03:27:11.511Z,8.55
2018-06-20T03:27:42.719Z,7.63
2018-06-20T03:28:13.890Z,7.73
2018-06-20T03:28:45.072Z,7.87
2018-06-20T03:29:16.244Z,7.83
2018-06-20T03:29:47.424Z,7.50
2018-06-20T03:30:18.644Z,7.37
2018-06-20T03:30:49.870Z,7.70
2018-06-20T03:31:21.107Z,7.77
2018-06-20T03:31:52.303Z,7.73
2018-06-20T03:32:23.545Z,7.90
2018-06-20T03:32:54.774Z,8.03
2018-06-20T03:33:25.954Z,7.90
2018-06-20T03:33:57.131Z,7.53
2018-06-20T03:34:28.296Z,7.80
2018-06-20T03:34:59.475Z,7.90
2018-06-20T03:35:30.720Z,8.17
2018-06-20T03:36:01.899Z,7.90
2018-06-20T03:36:33.077Z,8.30
2018-06-20T03:37:04.240Z,7.70
2018-06-20T03:37:35.424Z,8.33
2018-06-20T03:38:06.628Z,7.70
2018-06-20T03:38:37.788Z,8.23
2018-06-20T03:39:08.992Z,7.60
2018-06-20T03:39:40.152Z,7.73
2018-06-20T03:40:11.322Z,7.77
2018-06-20T03:40:42.540Z,8.17
2018-06-20T03:41:13.721Z,7.63
2018-06-20T03:41:44.889Z,7.40
2018-06-20T03:42:16.100Z,7.57
2018-06-20T03:42:47.280Z,7.50
2018-06-20T03:43:18.480Z,8.03
2018-06-20T03:43:49.695Z,7.37
2018-06-20T03:44:20.872Z,7.10
2018-06-20T03:44:52.092Z,8.00
2018-06-20T03:45:23.273Z,8.33
2018-06-20T03:45:54.495Z,7.53
2018-06-20T03:46:25.681Z,8.00
2018-06-20T03:46:56.897Z,7.37
2018-06-20T03:47:28.133Z,7.40
2018-06-20T03:47:59.357Z,7.63
2018-06-20T03:48:30.638Z,7.20
2018-06-20T03:49:01.827Z,7.20
2018-06-20T03:49:32.991Z,7.83
2018-06-20T03:50:04.164Z,7.40
2018-06-20T03:50:35.346Z,6.93
2018-06-20T03:51:06.529Z,7.20
2018-06-20T03:51:37.754Z,6.73
2018-06-20T03:52:08.932Z,6.97
2018-06-20T03:52:40.121Z,7.07
2018-06-20T03:53:11.352Z,6.43
2018-06-20T03:53:42.566Z,6.90
2018-06-20T03:54:13.751Z,6.57
2018-06-20T03:54:44.973Z,6.90
2018-06-20T03:55:16.160Z,7.03
2018-06-20T03:55:47.333Z,7.13
2018-06-20T03:56:18.507Z,6.53
2018-06-20T03:56:49.796Z,7.20
2018-06-20T03:57:20.976Z,7.33
2018-06-20T03:57:52.217Z,7.10
2018-06-20T03:58:23.489Z,6.40
2018-06-20T03:58:54.669Z,6.97
2018-06-20T03:59:25.850Z,6.60
2018-06-20T03:59:57.025Z,7.20
2018-06-20T04:00:28.194Z,7.13
2018-06-20T04:00:59.360Z,7.03
2018-06-20T04:01:30.583Z,7.23
2018-06-20T04:02:01.786Z,7.43
2018-06-20T04:02:33.017Z,7.20
2018-06-20T04:03:04.205Z,7.10
2018-06-20T04:03:35.420Z,6.77
2018-06-20T04:04:06.589Z,6.23
2018-06-20T04:04:37.756Z,6.80
2018-06-20T04:05:08.983Z,6.80
2018-06-20T04:05:40.173Z,6.27
2018-06-20T04:06:11.348Z,6.43
2018-06-20T04:06:42.520Z,6.20
2018-06-20T04:07:13.684Z,6.57
2018-06-20T04:07:44.866Z,5.93
2018-06-20T04:08:16.045Z,5.90
2018-06-20T04:08:47.262Z,6.60
2018-06-20T04:09:18.436Z,6.30
2018-06-20T04:09:49.649Z,5.83
2018-06-20T04:10:20.835Z,6.40
2018-06-20T04:10:52.004Z,6.40
2018-06-20T04:11:23.180Z,6.10
2018-06-20T04:11:54.424Z,6.10
2018-06-20T04:12:25.641Z,6.43
2018-06-20T04:12:56.819Z,6.53
2018-06-20T04:13:28.000Z,6.43
2018-06-20T04:13:59.173Z,5.83
2018-06-20T04:14:30.341Z,5.87
2018-06-20T04:15:01.561Z,6.23
2018-06-20T04:15:32.741Z,6.00
2018-06-20T04:16:03.970Z,6.17
2018-06-20T04:16:35.215Z,5.90
2018-06-20T04:17:06.415Z,6.07
2018-06-20T04:17:37.615Z,5.47
2018-06-20T04:18:08.789Z,5.73
2018-06-20T04:18:40.018Z,6.03
2018-06-20T04:19:11.230Z,5.73
2018-06-20T04:19:42.400Z,6.03
2018-06-20T04:20:13.565Z,5.63
2018-06-20T04:20:44.742Z,6.20
2018-06-20T04:21:15.920Z,5.97
2018-06-20T04:21:47.093Z,6.00
2018-06-20T04:22:18.353Z,6.00
2018-06-20T04:22:49.589Z,5.63
2018-06-20T04:23:20.768Z,5.40
2018-06-20T04:23:51.993Z,5.90
2018-06-20T04:24:23.224Z,5.63
2018-06-20T04:24:54.412Z,5.43
2018-06-20T04:25:25.637Z,6.00
2018-06-20T04:25:56.875Z,5.90
2018-06-20T04:26:28.060Z,5.67
2018-06-20T04:26:59.240Z,5.60
2018-06-20T04:27:30.466Z,5.20
2018-06-20T04:28:01.747Z,6.00
2018-06-20T04:28:32.981Z,6.60
2018-06-20T04:29:04.174Z,5.57
2018-06-20T04:29:35.341Z,5.60
2018-06-20T04:30:06.520Z,5.77
2018-06-20T04:30:37.696Z,5.40
2018-06-20T04:31:08.874Z,5.80
2018-06-20T04:31:40.076Z,5.17
2018-06-20T04:32:11.608Z,5.60
2018-06-20T04:32:42.825Z,5.50
2018-06-20T04:33:14.010Z,5.83
2018-06-20T04:33:45.198Z,5.90
2018-06-20T04:34:16.385Z,5.57
2018-06-20T04:34:47.629Z,5.63
2018-06-20T04:35:18.842Z,5.30
2018-06-20T04:35:50.024Z,5.70
2018-06-20T04:36:21.197Z,5.70
2018-06-20T04:36:52.382Z,5.17
2018-06-20T04:37:23.568Z,5.57
2018-06-20T04:37:54.815Z,5.47
2018-06-20T04:38:26.034Z,5.87
2018-06-20T04:38:57.230Z,5.90
2018-06-20T04:39:28.460Z,5.50
2018-06-20T04:39:59.694Z,5.60
2018-06-20T04:40:30.933Z,5.87
2018-06-20T04:41:02.117Z,4.93
2018-06-20T04:41:33.300Z,5.13
2018-06-20T04:42:04.530Z,5.67
2018-06-20T04:42:35.712Z,5.40
2018-06-20T04:43:06.937Z,5.73
2018-06-20T04:43:38.161Z,5.57
2018-06-20T04:44:09.344Z,5.67
2018-06-20T04:44:40.630Z,4.93
2018-06-20T04:45:11.773Z,5.40
2018-06-20T04:45:42.985Z,4.97
2018-06-20T04:46:14.214Z,5.23
2018-06-20T04:46:45.452Z,5.93
2018-06-20T04:47:16.623Z,5.53
2018-06-20T04:47:47.855Z,5.40
2018-06-20T04:48:19.047Z,5.30
2018-06-20T04:48:50.229Z,5.70
2018-06-20T04:49:21.407Z,5.40
2018-06-20T04:49:52.588Z,5.23
2018-06-20T04:50:23.763Z,5.17
2018-06-20T04:50:54.958Z,5.30
2018-06-20T04:51:26.144Z,5.37
2018-06-20T04:51:57.413Z,5.07
2018-06-20T04:52:28.632Z,6.03
2018-06-20T04:52:59.833Z,5.57
2018-06-20T04:53:31.017Z,5.50
2018-06-20T04:54:02.193Z,5.20
2018-06-20T04:54:33.412Z,5.30
2018-06-20T04:55:04.634Z,5.13
2018-06-20T04:55:35.840Z,5.47
2018-06-20T04:56:07.086Z,5.40
2018-06-20T04:56:38.295Z,4.93
2018-06-20T04:57:09.534Z,5.30
2018-06-20T04:57:40.756Z,5.40
2018-06-20T04:58:11.937Z,5.40
2018-06-20T04:58:43.124Z,5.40
2018-06-20T04:59:14.345Z,5.10
2018-06-20T04:59:45.525Z,5.30
2018-06-20T05:00:16.748Z,5.37
2018-06-20T05:00:47.932Z,5.03
2018-06-20T05:01:19.100Z,5.10
2018-06-20T05:01:50.345Z,5.60
2018-06-20T05:02:21.541Z,5.40
2018-06-20T05:02:52.752Z,5.10
2018-06-20T05:03:23.932Z,5.60
2018-06-20T05:03:55.105Z,5.47
2018-06-20T05:04:26.304Z,5.47
2018-06-20T05:04:57.528Z,5.43
2018-06-20T05:05:28.700Z,5.00
2018-06-20T05:05:59.868Z,5.10
2018-06-20T05:06:31.045Z,4.90
2018-06-20T05:07:02.228Z,5.50
2018-06-20T05:07:33.405Z,13.60
2018-06-20T05:08:04.641Z,4.70
2018-06-20T05:08:35.873Z,5.40
2018-06-20T05:09:07.104Z,5.03
2018-06-20T05:09:38.299Z,5.03
2018-06-20T05:10:09.505Z,5.07
2018-06-20T05:10:40.734Z,5.07
2018-06-20T05:11:11.955Z,5.23
2018-06-20T05:11:43.125Z,5.40
2018-06-20T05:12:14.304Z,5.07
2018-06-20T05:12:45.480Z,6.23
2018-06-20T05:13:16.713Z,5.03
2018-06-20T05:13:47.897Z,5.43
2018-06-20T05:14:19.069Z,5.30
2018-06-20T05:14:50.313Z,4.87
2018-06-20T05:15:21.541Z,5.30
2018-06-20T05:15:52.708Z,6.30
2018-06-20T05:16:23.884Z,6.30
2018-06-20T05:16:55.108Z,6.83
2018-06-20T05:17:26.288Z,7.80
2018-06-20T05:17:57.465Z,6.42
2018-06-20T05:18:28.685Z,5.25
2018-06-20T05:18:59.874Z,8.20
2018-06-20T05:19:31.097Z,5.05
2018-06-20T05:20:02.276Z,5.80
2018-06-20T05:20:33.481Z,5.90
2018-06-20T05:21:04.735Z,6.15
2018-06-20T05:21:35.916Z,15.00
2018-06-20T05:22:07.086Z,5.97
2018-06-20T05:22:38.269Z,5.55
2018-06-20T05:23:09.517Z,5.28
2018-06-20T05:23:40.705Z,5.45
2018-06-20T05:24:11.926Z,5.00
2018-06-20T05:24:43.108Z,5.65
2018-06-20T05:25:14.292Z,5.37
2018-06-20T05:25:45.477Z,5.55
2018-06-20T05:26:16.732Z,4.92
2018-06-20T05:26:47.912Z,5.08
2018-06-20T05:27:19.168Z,5.60
2018-06-20T05:27:50.409Z,14.38
2018-06-20T05:28:21.600Z,7.50
2018-06-20T05:28:52.779Z,8.25
2018-06-20T05:29:23.948Z,11.10
2018-06-20T05:29:55.210Z,7.60
2018-06-20T05:30:26.451Z,5.30
2018-06-20T05:30:57.638Z,5.37
2018-06-20T05:31:28.820Z,5.05
2018-06-20T05:31:59.997Z,5.40
2018-06-20T05:32:31.169Z,5.33
2018-06-20T05:33:02.394Z,6.08
2018-06-20T05:33:33.572Z,5.45
2018-06-20T05:34:04.797Z,8.45
2018-06-20T05:34:36.045Z,6.37
2018-06-20T05:35:07.245Z,5.53
2018-06-20T05:35:38.424Z,5.53
2018-06-20T05:36:09.605Z,5.90
2018-06-20T05:36:40.783Z,6.28
2018-06-20T05:37:12.016Z,5.33
2018-06-20T05:37:43.262Z,5.30
2018-06-20T05:38:14.647Z,5.12
2018-06-20T05:38:45.834Z,5.22
2018-06-20T05:39:17.021Z,6.72
2018-06-20T05:39:48.209Z,5.12
2018-06-20T05:40:19.441Z,5.35
2018-06-20T05:40:50.682Z,5.50
2018-06-20T05:41:21.888Z,5.97
2018-06-20T05:41:53.121Z,5.78
2018-06-20T05:42:24.312Z,10.63
2018-06-20T05:42:55.489Z,5.87
2018-06-20T05:43:26.680Z,6.30
2018-06-20T05:43:57.857Z,6.00
2018-06-20T05:44:29.040Z,5.47
2018-06-20T05:45:00.205Z,5.45
2018-06-20T05:45:31.383Z,5.72
2018-06-20T05:46:02.617Z,5.30
2018-06-20T05:46:33.900Z,5.67
2018-06-20T05:47:05.160Z,6.40
2018-06-20T05:47:36.365Z,7.12
2018-06-20T05:48:07.620Z,6.03
2018-06-20T05:48:38.810Z,5.28
2018-06-20T05:49:09.977Z,5.33
2018-06-20T05:49:41.205Z,5.42
2018-06-20T05:50:12.457Z,10.35
2018-06-20T05:50:43.708Z,10.08
2018-06-20T05:51:14.948Z,8.80
2018-06-20T05:51:46.233Z,6.47
2018-06-20T05:52:17.430Z,6.20
2018-06-20T05:52:48.605Z,6.95
2018-06-20T05:53:19.865Z,5.50
2018-06-20T05:53:51.133Z,5.62
2018-06-20T05:54:22.350Z,6.40
2018-06-20T05:54:53.529Z,7.17
2018-06-20T05:55:24.700Z,5.83
2018-06-20T05:55:55.892Z,5.87
2018-06-20T05:56:27.114Z,5.08
2018-06-20T05:56:58.337Z,6.08
2018-06-20T05:57:29.517Z,6.85
2018-06-20T05:58:00.777Z,5.95
2018-06-20T05:58:31.997Z,5.87
2018-06-20T05:59:03.189Z,5.50
2018-06-20T05:59:34.377Z,5.08
2018-06-20T06:00:05.556Z,6.08
2018-06-20T06:00:36.734Z,5.55
2018-06-20T06:01:07.911Z,5.55
2018-06-20T06:01:39.148Z,5.50
2018-06-20T06:02:10.445Z,5.45
2018-06-20T06:02:41.641Z,5.00
2018-06-20T06:03:12.837Z,7.05
2018-06-20T06:03:44.016Z,5.72
2018-06-20T06:04:15.205Z,5.40
2018-06-20T06:04:46.390Z,5.25
2018-06-20T06:05:17.860Z,5.53
2018-06-20T06:05:49.082Z,5.92
2018-06-20T06:06:20.271Z,5.75
2018-06-20T06:06:51.513Z,5.75
2018-06-20T06:07:22.744Z,5.85
2018-06-20T06:07:53.925Z,5.45
2018-06-20T06:08:25.122Z,5.87
2018-06-20T06:08:56.701Z,5.45
2018-06-20T06:09:27.880Z,5.47
2018-06-20T06:09:59.076Z,6.55
2018-06-20T06:10:30.329Z,5.22
2018-06-20T06:11:01.544Z,5.97
2018-06-20T06:11:32.775Z,5.90
2018-06-20T06:12:04.041Z,5.75
2018-06-20T06:12:35.292Z,6.95
2018-06-20T06:13:06.536Z,6.00
2018-06-20T06:13:37.735Z,6.20
2018-06-20T06:14:08.936Z,5.83
2018-06-20T06:14:40.121Z,5.47
2018-06-20T06:15:11.389Z,5.85
2018-06-20T06:15:42.572Z,6.10
2018-06-20T06:16:13.761Z,6.28
2018-06-20T06:16:44.964Z,5.65
2018-06-20T06:17:16.161Z,5.37
2018-06-20T06:17:47.383Z,5.90
2018-06-20T06:18:18.609Z,5.87
2018-06-20T06:18:49.869Z,5.62
2018-06-20T06:19:21.123Z,5.62
2018-06-20T06:19:52.353Z,6.12
2018-06-20T06:20:23.591Z,6.28
2018-06-20T06:20:54.782Z,5.47
2018-06-20T06:21:25.979Z,5.87
2018-06-20T06:21:57.155Z,6.00
2018-06-20T06:22:28.340Z,5.75
2018-06-20T06:22:59.622Z,5.50
2018-06-20T06:23:30.864Z,5.97
2018-06-20T06:24:02.108Z,5.42
2018-06-20T06:24:33.304Z,6.40
2018-06-20T06:25:04.493Z,5.75
2018-06-20T06:25:35.668Z,5.55
2018-06-20T06:26:06.849Z,5.78
2018-06-20T06:26:38.914Z,6.10
2018-06-20T06:27:10.102Z,5.87
2018-06-20T06:27:41.329Z,5.80
2018-06-20T06:28:12.558Z,6.00
2018-06-20T06:28:43.784Z,5.67
2018-06-20T06:29:15.017Z,6.20
2018-06-20T06:29:46.201Z,6.03
2018-06-20T06:30:17.414Z,7.08
2018-06-20T06:30:48.598Z,5.97
2018-06-20T06:31:19.810Z,5.58
2018-06-20T06:31:51.042Z,6.45
2018-06-20T06:32:22.227Z,6.22
2018-06-20T06:32:53.461Z,6.03
2018-06-20T06:33:24.657Z,5.85
2018-06-20T06:33:55.870Z,6.60
2018-06-20T06:34:27.102Z,7.25
2018-06-20T06:34:58.341Z,7.72
2018-06-20T06:35:29.585Z,5.70
2018-06-20T06:36:00.782Z,7.87
2018-06-20T06:36:32.037Z,6.05
2018-06-20T06:37:03.242Z,5.53
2018-06-20T06:37:34.425Z,5.87
2018-06-20T06:38:05.654Z,5.58
2018-06-20T06:38:36.897Z,5.85
2018-06-20T06:39:08.144Z,5.60
2018-06-20T06:39:39.319Z,5.65
2018-06-20T06:40:10.494Z,6.33
2018-06-20T06:40:41.672Z,6.08
2018-06-20T06:41:13.569Z,6.90
2018-06-20T06:41:44.793Z,6.87
2018-06-20T06:42:16.536Z,5.50
2018-06-20T06:42:47.778Z,5.50
2018-06-20T06:43:18.957Z,5.80
2018-06-20T06:43:50.152Z,6.85
2018-06-20T06:44:21.333Z,6.20
2018-06-20T06:44:52.521Z,7.30
2018-06-20T06:45:23.754Z,5.95
2018-06-20T06:45:54.990Z,7.40
2018-06-20T06:46:26.186Z,5.83
2018-06-20T06:46:57.470Z,5.15
2018-06-20T06:47:28.641Z,5.97
2018-06-20T06:47:59.909Z,5.67
2018-06-20T06:48:31.190Z,5.85
2018-06-20T06:49:02.368Z,5.92
2018-06-20T06:49:33.558Z,5.83
2018-06-20T06:50:04.890Z,5.45
2018-06-20T06:50:36.126Z,5.83
2018-06-20T06:51:07.312Z,5.25
2018-06-20T06:51:38.497Z,5.78
2018-06-20T06:52:09.689Z,5.87
2018-06-20T06:52:40.957Z,5.67
2018-06-20T06:53:12.188Z,7.25
2018-06-20T06:53:43.372Z,5.78
2018-06-20T06:54:14.550Z,5.55
2018-06-20T06:54:45.761Z,9.05
2018-06-20T06:55:16.945Z,15.20